createdAt,value
2019-05-19T00:00:28.161Z,15.30
2019-05-19T00:03:32.953Z,15.30
2019-05-19T00:06:37.744Z,15.30
2019-05-19T00:09:42.540Z,15.30
2019-05-19T00:12:47.221Z,15.30
2019-05-19T00:15:51.898Z,15.20
2019-05-19T00:18:56.555Z,15.20
2019-05-19T00:22:01.200Z,15.20
2019-05-19T00:25:06.614Z,15.10
2019-05-19T00:28:11.432Z,15.00
2019-05-19T00:31:16.091Z,14.90
2019-05-19T00:34:20.727Z,14.80
2019-05-19T00:37:25.417Z,14.80
2019-05-19T00:40:30.077Z,14.70
2019-05-19T00:43:34.799Z,14.70
2019-05-19T00:46:39.655Z,14.80
2019-05-19T00:49:44.370Z,14.80
2019-05-19T00:52:48.992Z,14.70
2019-05-19T00:55:54.389Z,14.70
2019-05-19T00:58:59.930Z,14.60
2019-05-19T01:02:05.038Z,14.60
2019-05-19T01:05:09.874Z,14.60
2019-05-19T01:08:14.573Z,14.60
2019-05-19T01:11:19.291Z,14.50
2019-05-19T01:14:43.265Z,14.40
2019-05-19T01:17:47.889Z,14.40
2019-05-19T01:20:53.028Z,14.40
2019-05-19T01:23:57.699Z,14.40
2019-05-19T01:27:02.537Z,14.40
2019-05-19T01:30:08.498Z,14.40
2019-05-19T01:33:13.313Z,14.30
2019-05-19T01:36:18.016Z,14.30
2019-05-19T01:39:22.923Z,14.30
2019-05-19T01:42:27.605Z,14.20
2019-05-19T01:45:32.397Z,14.10
2019-05-19T01:48:37.054Z,13.90
2019-05-19T01:51:41.765Z,13.80
2019-05-19T01:54:47.063Z,13.80
2019-05-19T01:57:51.805Z,13.70
2019-05-19T02:00:56.438Z,13.70
2019-05-19T02:04:01.069Z,13.70
2019-05-19T02:07:05.710Z,13.70
2019-05-19T02:10:10.793Z,13.70
2019-05-19T02:13:15.432Z,13.70
2019-05-19T02:16:20.154Z,13.70
2019-05-19T02:19:24.833Z,13.80
2019-05-19T02:22:29.551Z,13.80
2019-05-19T02:25:34.189Z,13.70
2019-05-19T02:28:38.824Z,13.70
2019-05-19T02:31:43.865Z,13.70
2019-05-19T02:34:48.616Z,13.70
2019-05-19T02:37:53.307Z,13.70
2019-05-19T02:40:58.501Z,13.60
2019-05-19T02:44:04.944Z,13.60
2019-05-19T02:47:12.716Z,13.60
2019-05-19T02:50:18.219Z,13.50
2019-05-19T02:53:24.387Z,13.40
2019-05-19T02:56:30.690Z,13.30
2019-05-19T02:59:36.266Z,13.30
2019-05-19T03:02:40.899Z,13.30
2019-05-19T03:05:45.546Z,13.30
2019-05-19T03:08:50.168Z,13.30
2019-05-19T03:11:54.879Z,13.30
2019-05-19T03:14:59.532Z,13.30
2019-05-19T03:18:04.249Z,13.30
2019-05-19T03:21:11.676Z,13.20
2019-05-19T03:24:15.450Z,13.20
2019-05-19T03:27:20.179Z,13.20
2019-05-19T03:30:50.031Z,13.10
2019-05-19T03:33:54.691Z,13.10
2019-05-19T03:36:59.550Z,13.10
2019-05-19T03:40:06.498Z,13.00
2019-05-19T03:43:11.138Z,13.00
2019-05-19T03:46:15.869Z,13.00
2019-05-19T03:49:21.504Z,13.00
2019-05-19T03:52:26.122Z,12.90
2019-05-19T03:55:30.934Z,12.90
2019-05-19T03:58:35.582Z,12.90
2019-05-19T04:01:40.238Z,12.80
2019-05-19T04:04:44.942Z,12.80
2019-05-19T04:07:49.634Z,12.70
2019-05-19T04:10:54.476Z,12.80
2019-05-19T04:13:59.201Z,12.80
2019-05-19T04:17:04.020Z,12.90
2019-05-19T04:20:09.023Z,12.90
2019-05-19T04:23:13.893Z,13.00
2019-05-19T04:26:18.624Z,13.10
2019-05-19T04:29:23.375Z,13.20
2019-05-19T04:32:28.022Z,13.20
2019-05-19T04:35:32.826Z,13.20
2019-05-19T04:38:37.549Z,13.30
2019-05-19T04:41:42.276Z,13.20
2019-05-19T04:44:46.993Z,13.20
2019-05-19T04:47:51.639Z,13.20
2019-05-19T04:50:56.278Z,13.20
2019-05-19T04:54:00.917Z,13.20
2019-05-19T04:57:05.644Z,13.30
2019-05-19T05:00:10.533Z,13.50
2019-05-19T05:03:15.186Z,13.50
2019-05-19T05:06:19.902Z,13.60
2019-05-19T05:09:25.905Z,13.90
2019-05-19T05:12:30.563Z,14.00
2019-05-19T05:15:35.362Z,14.00
2019-05-19T05:18:40.016Z,14.00
2019-05-19T05:21:44.685Z,14.00
2019-05-19T05:24:49.390Z,14.10
2019-05-19T05:27:54.134Z,14.30
2019-05-19T05:30:58.867Z,14.40
2019-05-19T05:34:03.586Z,14.50
2019-05-19T05:37:08.378Z,14.50
2019-05-19T05:40:13.205Z,14.50
2019-05-19T05:43:17.988Z,14.50
2019-05-19T05:46:22.801Z,14.60
2019-05-19T05:49:27.866Z,14.60
2019-05-19T05:52:38.667Z,14.60
2019-05-19T05:55:39.089Z,14.60
2019-05-19T05:58:43.805Z,14.70
2019-05-19T06:01:50.080Z,14.70
2019-05-19T06:04:54.754Z,14.80
2019-05-19T06:07:59.397Z,14.80
2019-05-19T06:11:04.187Z,14.90
2019-05-19T06:14:08.951Z,15.00
2019-05-19T06:17:13.732Z,15.10
2019-05-19T06:20:18.548Z,15.20
2019-05-19T06:23:23.467Z,15.30
2019-05-19T06:26:28.173Z,15.30
2019-05-19T06:29:33.206Z,15.40
2019-05-19T06:32:42.608Z,15.50
2019-05-19T06:35:47.386Z,15.60
2019-05-19T06:38:52.403Z,15.70
2019-05-19T06:41:57.262Z,15.80
2019-05-19T06:45:02.051Z,15.90
2019-05-19T06:48:06.934Z,16.00
2019-05-19T06:51:11.952Z,16.10
2019-05-19T06:54:16.814Z,16.20
2019-05-19T06:57:21.633Z,16.30
2019-05-19T07:00:26.450Z,16.40
2019-05-19T07:03:31.364Z,16.50
2019-05-19T07:06:36.035Z,16.70
2019-05-19T07:09:40.818Z,16.90
2019-05-19T07:12:45.972Z,17.00
2019-05-19T07:15:50.860Z,17.20
2019-05-19T07:18:55.655Z,17.40
2019-05-19T07:22:01.952Z,17.60
2019-05-19T07:25:07.471Z,17.80
2019-05-19T07:28:12.210Z,17.90
2019-05-19T07:31:16.918Z,18.00
2019-05-19T07:34:21.762Z,18.00
2019-05-19T07:37:26.404Z,18.10
2019-05-19T07:40:31.387Z,18.20
2019-05-19T07:43:36.184Z,18.30
2019-05-19T07:46:40.972Z,18.30
2019-05-19T07:49:45.729Z,18.40
2019-05-19T07:52:50.517Z,18.60
2019-05-19T07:55:55.178Z,18.70
2019-05-19T07:59:02.576Z,18.80
2019-05-19T08:02:07.558Z,18.90
2019-05-19T08:05:12.443Z,19.00
2019-05-19T08:08:17.419Z,19.10
2019-05-19T08:11:22.309Z,19.30
2019-05-19T08:14:27.054Z,19.40
2019-05-19T08:17:31.894Z,19.50
2019-05-19T08:20:36.606Z,19.60
2019-05-19T08:23:41.785Z,19.70
2019-05-19T08:26:46.924Z,19.70
2019-05-19T08:29:52.094Z,19.80
2019-05-19T08:32:57.418Z,19.90
2019-05-19T08:36:02.545Z,20.10
2019-05-19T08:39:07.675Z,20.20
2019-05-19T08:42:12.687Z,20.30
2019-05-19T08:45:17.994Z,20.30
2019-05-19T08:48:22.993Z,20.20
2019-05-19T08:51:28.278Z,20.10
2019-05-19T08:54:33.286Z,20.10
2019-05-19T08:57:38.476Z,20.30
2019-05-19T09:00:43.421Z,20.40
2019-05-19T09:03:48.811Z,20.50
2019-05-19T09:06:53.755Z,20.60
2019-05-19T09:09:58.868Z,20.60
2019-05-19T09:13:04.027Z,20.70
2019-05-19T09:16:09.137Z,20.80
2019-05-19T09:19:25.876Z,20.90
2019-05-19T09:22:30.823Z,21.00
2019-05-19T09:25:36.276Z,21.20
2019-05-19T09:28:41.361Z,21.20
2019-05-19T09:31:46.902Z,21.40
2019-05-19T09:34:51.874Z,21.50
2019-05-19T09:37:57.351Z,21.60
2019-05-19T09:41:02.302Z,21.60
2019-05-19T09:44:08.942Z,21.70
2019-05-19T09:47:13.918Z,21.70
2019-05-19T09:50:19.242Z,21.70
2019-05-19T09:53:24.269Z,21.70
2019-05-19T09:56:29.615Z,21.80
2019-05-19T09:59:34.831Z,21.90
2019-05-19T10:02:39.997Z,21.90
2019-05-19T10:05:45.136Z,22.00
2019-05-19T10:08:56.726Z,22.00
2019-05-19T10:12:04.138Z,22.10
2019-05-19T10:15:11.033Z,22.10
2019-05-19T10:18:16.415Z,22.30
2019-05-19T10:21:21.441Z,22.30
2019-05-19T10:24:26.703Z,22.20
2019-05-19T10:27:34.243Z,22.20
2019-05-19T10:30:39.494Z,22.30
2019-05-19T10:33:44.553Z,22.20
2019-05-19T10:36:49.652Z,22.20
2019-05-19T10:39:54.634Z,22.20
2019-05-19T10:42:59.710Z,22.40
2019-05-19T10:46:05.574Z,22.50
2019-05-19T10:49:10.591Z,22.50
2019-05-19T10:52:17.462Z,22.60
2019-05-19T10:55:35.445Z,22.80
2019-05-19T10:58:29.178Z,22.90
2019-05-19T11:01:34.217Z,22.90
2019-05-19T11:04:39.405Z,23.00
2019-05-19T11:07:44.345Z,22.90
2019-05-19T11:10:49.583Z,23.00
2019-05-19T11:13:54.943Z,23.10
2019-05-19T11:17:00.033Z,23.20
2019-05-19T11:20:05.646Z,23.20
2019-05-19T11:23:11.115Z,23.30
2019-05-19T11:26:16.326Z,23.30
2019-05-19T11:29:21.583Z,23.20
2019-05-19T11:32:26.765Z,23.20
2019-05-19T11:35:31.831Z,23.30
2019-05-19T11:38:36.961Z,23.30
2019-05-19T11:41:42.198Z,23.40
2019-05-19T11:44:47.171Z,23.40
2019-05-19T11:47:52.243Z,23.40
2019-05-19T11:50:57.299Z,23.40
2019-05-19T11:54:02.374Z,23.50
2019-05-19T11:57:07.442Z,23.70
2019-05-19T12:00:12.689Z,23.80
2019-05-19T12:03:17.970Z,23.80
2019-05-19T12:06:38.236Z,24.00
2019-05-19T12:09:29.780Z,24.10
2019-05-19T12:12:34.890Z,24.30
2019-05-19T12:15:40.134Z,24.50
2019-05-19T12:18:45.329Z,24.60
2019-05-19T12:21:50.431Z,24.70
2019-05-19T12:24:55.545Z,24.80
2019-05-19T12:28:01.821Z,24.90
2019-05-19T12:31:06.951Z,24.90
2019-05-19T12:34:12.107Z,24.90
2019-05-19T12:37:17.293Z,24.90
2019-05-19T12:40:22.872Z,24.90
2019-05-19T12:43:29.610Z,24.90
2019-05-19T12:46:34.580Z,24.80
2019-05-19T12:49:40.029Z,24.80
2019-05-19T12:52:45.100Z,24.80
2019-05-19T12:55:51.962Z,24.80
2019-05-19T12:58:57.062Z,24.90
2019-05-19T13:02:02.037Z,25.10
2019-05-19T13:05:07.197Z,25.20
2019-05-19T13:08:12.420Z,25.30
2019-05-19T13:11:17.637Z,25.20
2019-05-19T13:14:22.738Z,25.20
2019-05-19T13:17:28.202Z,25.20
2019-05-19T13:20:33.317Z,25.20
2019-05-19T13:23:38.556Z,25.30
2019-05-19T13:26:55.555Z,25.30
2019-05-19T13:29:50.559Z,25.30
2019-05-19T13:32:55.506Z,25.40
2019-05-19T13:36:02.592Z,25.30
2019-05-19T13:39:07.919Z,25.10
2019-05-19T13:42:16.394Z,24.80
2019-05-19T13:45:21.963Z,24.60
2019-05-19T13:48:27.175Z,24.50
2019-05-19T13:51:32.375Z,24.60
2019-05-19T13:54:37.422Z,24.80
2019-05-19T13:57:42.561Z,25.00
2019-05-19T14:00:47.715Z,25.30
2019-05-19T14:03:52.771Z,25.50
2019-05-19T14:06:57.825Z,25.60
2019-05-19T14:10:03.071Z,25.80
2019-05-19T14:13:08.160Z,26.10
2019-05-19T14:16:14.803Z,26.50
2019-05-19T14:19:19.774Z,26.90
2019-05-19T14:22:26.306Z,27.00
2019-05-19T14:25:31.334Z,27.10
2019-05-19T14:28:37.202Z,27.10
2019-05-19T14:31:42.146Z,27.10
2019-05-19T14:34:48.227Z,27.20
2019-05-19T14:37:52.812Z,27.50
2019-05-19T14:40:57.870Z,27.70
2019-05-19T14:44:03.994Z,28.00
2019-05-19T14:47:09.243Z,28.20
2019-05-19T14:50:14.776Z,27.90
2019-05-19T14:53:19.971Z,27.70
2019-05-19T14:56:25.189Z,27.70
2019-05-19T14:59:30.337Z,27.80
2019-05-19T15:02:35.575Z,27.80
2019-05-19T15:05:40.729Z,27.90
2019-05-19T15:08:45.887Z,28.30
2019-05-19T15:11:51.031Z,28.40
2019-05-19T15:14:56.178Z,28.30
2019-05-19T15:18:01.265Z,27.90
2019-05-19T15:21:06.637Z,27.40
2019-05-19T15:24:11.660Z,26.90
2019-05-19T15:27:17.039Z,26.40
2019-05-19T15:30:21.611Z,26.10
2019-05-19T15:33:37.372Z,26.00
2019-05-19T15:36:37.294Z,26.20
2019-05-19T15:39:42.702Z,26.60
2019-05-19T15:42:47.825Z,26.90
2019-05-19T15:45:53.057Z,27.00
2019-05-19T15:48:58.187Z,27.10
2019-05-19T15:52:05.195Z,27.30
2019-05-19T15:55:11.091Z,27.60
2019-05-19T15:58:17.129Z,27.80
2019-05-19T16:01:22.421Z,28.00
2019-05-19T16:04:27.566Z,28.20
2019-05-19T16:07:32.796Z,28.30
2019-05-19T16:10:37.833Z,28.50
2019-05-19T16:13:44.475Z,28.50
2019-05-19T16:16:49.582Z,28.30
2019-05-19T16:19:55.047Z,28.10
2019-05-19T16:23:01.389Z,27.70
2019-05-19T16:26:06.662Z,27.30
2019-05-19T16:29:11.814Z,27.00
2019-05-19T16:32:16.994Z,26.60
2019-05-19T16:35:22.039Z,26.30
2019-05-19T16:38:27.098Z,26.10
2019-05-19T16:41:32.258Z,25.90
2019-05-19T16:44:37.222Z,25.60
2019-05-19T16:47:42.455Z,25.40
2019-05-19T16:50:47.453Z,25.30
2019-05-19T16:53:55.359Z,25.10
2019-05-19T16:57:00.393Z,24.90
2019-05-19T17:00:05.618Z,24.80
2019-05-19T17:03:10.634Z,24.70
2019-05-19T17:06:16.394Z,24.80
2019-05-19T17:09:21.412Z,24.80
2019-05-19T17:12:26.871Z,24.90
2019-05-19T17:15:31.938Z,25.00
2019-05-19T17:18:38.504Z,25.00
2019-05-19T17:21:43.439Z,25.10
2019-05-19T17:24:48.757Z,25.10
2019-05-19T17:27:53.826Z,25.30
2019-05-19T17:30:58.895Z,25.40
2019-05-19T17:34:04.156Z,25.30
2019-05-19T17:37:09.314Z,25.30
2019-05-19T17:40:15.093Z,25.00
2019-05-19T17:43:20.174Z,24.80
2019-05-19T17:46:25.287Z,24.50
2019-05-19T17:49:30.260Z,24.30
2019-05-19T17:52:35.683Z,23.90
2019-05-19T17:55:41.375Z,23.40
2019-05-19T17:58:48.140Z,22.80
2019-05-19T18:01:53.164Z,22.50
2019-05-19T18:04:58.514Z,22.20
2019-05-19T18:08:04.577Z,22.00
2019-05-19T18:11:09.743Z,22.00
2019-05-19T18:14:15.021Z,22.00
2019-05-19T18:17:20.199Z,22.00
2019-05-19T18:20:25.200Z,22.00
2019-05-19T18:23:31.607Z,21.90
2019-05-19T18:26:36.919Z,21.80
2019-05-19T18:29:42.062Z,21.70
2019-05-19T18:32:47.245Z,21.60
2019-05-19T18:35:52.318Z,21.60
2019-05-19T18:38:57.492Z,21.60
2019-05-19T18:42:02.499Z,21.40
2019-05-19T18:45:08.774Z,21.20
2019-05-19T18:48:35.227Z,21.10
2019-05-19T18:51:40.287Z,21.00
2019-05-19T18:54:46.757Z,20.90
2019-05-19T18:57:52.030Z,20.80
2019-05-19T19:00:59.652Z,20.80
2019-05-19T19:04:04.782Z,20.70
2019-05-19T19:07:09.923Z,20.50
2019-05-19T19:10:15.062Z,20.20
2019-05-19T19:13:20.182Z,20.00
2019-05-19T19:16:25.266Z,19.70
2019-05-19T19:19:30.321Z,19.60
2019-05-19T19:22:35.399Z,19.40
2019-05-19T19:25:40.683Z,19.20
2019-05-19T19:28:45.661Z,18.90
2019-05-19T19:31:51.184Z,18.70
2019-05-19T19:34:56.292Z,18.50
2019-05-19T19:38:01.347Z,18.30
2019-05-19T19:41:06.451Z,18.30
2019-05-19T19:44:11.491Z,18.20
2019-05-19T19:47:16.622Z,18.20
2019-05-19T19:50:21.708Z,18.10
2019-05-19T19:53:26.815Z,18.10
2019-05-19T19:56:32.004Z,18.00
2019-05-19T19:59:36.997Z,18.10
2019-05-19T20:02:42.158Z,18.10
2019-05-19T20:05:47.322Z,17.90
2019-05-19T20:08:52.493Z,17.80
2019-05-19T20:11:57.475Z,17.70
2019-05-19T20:15:02.573Z,17.70
2019-05-19T20:18:07.781Z,17.70
2019-05-19T20:21:13.532Z,17.60
2019-05-19T20:24:18.510Z,17.60
2019-05-19T20:27:23.592Z,17.70
2019-05-19T20:30:35.574Z,17.70
2019-05-19T20:33:35.737Z,17.80
2019-05-19T20:36:40.713Z,17.90
2019-05-19T20:39:45.893Z,18.00
2019-05-19T20:42:50.914Z,18.00
2019-05-19T20:45:56.007Z,17.90
2019-05-19T20:49:01.057Z,18.00
2019-05-19T20:52:06.132Z,18.00
2019-05-19T20:55:11.305Z,18.00
2019-05-19T20:58:16.785Z,18.10
2019-05-19T21:01:22.788Z,18.10
2019-05-19T21:04:27.968Z,18.10
2019-05-19T21:07:33.360Z,18.00
2019-05-19T21:10:39.042Z,17.90
2019-05-19T21:13:44.188Z,17.80
2019-05-19T21:16:49.505Z,17.80
2019-05-19T21:19:54.864Z,17.80
2019-05-19T21:23:00.390Z,17.60
2019-05-19T21:26:05.654Z,17.50
2019-05-19T21:29:10.791Z,17.30
2019-05-19T21:32:15.791Z,17.30
2019-05-19T21:35:20.913Z,17.20
2019-05-19T21:38:25.913Z,17.10
2019-05-19T21:41:30.994Z,17.10
2019-05-19T21:44:36.171Z,17.00
2019-05-19T21:47:41.255Z,17.00
2019-05-19T21:50:46.225Z,17.00
2019-05-19T21:53:51.462Z,17.00
2019-05-19T21:56:58.098Z,17.00
2019-05-19T22:00:03.382Z,17.00
2019-05-19T22:03:08.718Z,17.00
2019-05-19T22:06:13.965Z,16.90
2019-05-19T22:09:18.930Z,16.80
2019-05-19T22:12:24.259Z,16.70
2019-05-19T22:15:29.458Z,16.70
2019-05-19T22:18:34.782Z,16.60
2019-05-19T22:21:39.753Z,16.60
2019-05-19T22:24:44.799Z,16.60
2019-05-19T22:27:49.848Z,16.50
2019-05-19T22:30:54.823Z,16.50
2019-05-19T22:33:59.788Z,16.50
2019-05-19T22:37:04.836Z,16.40
2019-05-19T22:40:10.899Z,16.40
2019-05-19T22:43:15.983Z,16.30
2019-05-19T22:46:21.013Z,16.20
2019-05-19T22:49:26.068Z,16.20
2019-05-19T22:52:31.013Z,16.20
2019-05-19T22:55:35.997Z,16.20
2019-05-19T22:58:41.633Z,16.20
2019-05-19T23:01:51.724Z,16.20
2019-05-19T23:04:53.699Z,16.20
2019-05-19T23:07:58.750Z,16.10
2019-05-19T23:11:03.867Z,16.10
2019-05-19T23:14:08.833Z,16.00
2019-05-19T23:17:13.946Z,16.00
2019-05-19T23:20:19.174Z,15.90
2019-05-19T23:23:24.334Z,15.90
2019-05-19T23:26:29.302Z,15.80
2019-05-19T23:29:34.266Z,15.80
2019-05-19T23:32:39.404Z,15.80
2019-05-19T23:35:44.424Z,15.90
2019-05-19T23:38:49.406Z,15.90
2019-05-19T23:41:54.429Z,15.90
2019-05-19T23:44:59.500Z,15.80
2019-05-19T23:48:04.518Z,15.70
2019-05-19T23:51:09.658Z,15.70
2019-05-19T23:54:14.715Z,15.60
2019-05-19T23:57:19.697Z,15.50
